KHLB/HLB METAR and TAF weather

Enter ICAO airport designator
Station Type Date Time Source
KHLB METAR 2019/04/22 17:55 UTC NOAA

KHLB 221755Z AUTO 16008G13KT 10SM CLR 23/06 A3016 RMK A01


Station Type Date Time Source
KHLB Decoded METAR 2019/04/22 17:55 UTC NOAA

Station name not available
Apr 22, 2019 - 01:55 PM EDT / 2019.04.22 1755 UTC
Wind: from the SSE (160 degrees) at 9 MPH (8 KT) gusting to 15 MPH (13 KT):0
Visibility: 10 mile(s):0
Sky conditions: clear
Temperature: 73 F (23 C)
Dew Point: 42 F (6 C)
Relative Humidity: 33%
Pressure (altimeter): 30.16 in. Hg (1021 hPa)
ob: KHLB 221755Z AUTO 16008G13KT 10SM CLR 23/06 A3016 RMK A01
cycle: 18

Station Type Date Time Source
KHLB TAF UTC NOAA

Error!

Example: see airport list